Goldfield, Nevada Weather observations

Data are for observation ending at time listed.
 Day   Time    Ave.   Ave.  Ave.  Vector   Max.   Stn.    Total    Solar   Ave.  
  of    of     Air    Rel.  Wind   Wind    Wind   Baro.  Precip.   Rad.    Soil  
Year   Day     Temp.  Hum.  Speed  Dir.    Gust   Pres.                    Temp. 
2016   (PST)    F      %     mph   deg.    mph     mb.     in.     W/m2     F   
------------------------------------------------------------------------------
 211   19:30   80.9    30   11.2    19     19.5   829.2    0.00       0    93.9
 211   19:40   80.2    31   11.4    32     21.6   829.0    0.00       0    93.7
 211   19:50   80.9    28    3.9    12     11.5   829.1    0.00       0    93.5
 211   20:00   81.6    27    3.4    37      8.6   829.4    0.00       0    93.2
 211   20:10   80.7    29    3.1   224      4.7   829.5    0.00       0    93.0
 211   20:20   79.5    30    2.2   255      3.7   829.7    0.00       0    92.8
 211   20:30   78.9    32    3.3   277      6.5   829.8    0.00       0    92.5
 211   20:40   78.7    32    6.4   309     13.0   829.9    0.00       0    92.3
 211   20:50   78.0    33    6.9   299     10.6   830.1    0.00       0    92.1
 211   21:00   78.8    30    2.5   288      4.8   830.2    0.00       0    91.8
 211   21:10   79.0    30    3.3   226      5.1   830.1    0.00       0    91.7
 211   21:20   78.0    30    1.8   219      3.4   830.1    0.00       0    91.4
 211   21:30   78.2    30    1.9   179      3.4   830.0    0.00       0    91.2
 211   21:40   78.1    31    2.0   137      5.5   830.0    0.00       0    91.0
 211   21:50   77.0    34    6.6   185     11.8   829.9    0.00       0    90.8
 211   22:00   77.8    32    5.1   167      7.5   829.8    0.00       0    90.6
 211   22:10   77.5    32    2.1   164      4.4   829.7    0.00       0    90.4
 211   22:20   77.3    31    1.8   329      4.5   829.5    0.00       0    90.3
 211   22:30   75.9    33    0.5   256      1.5   829.4    0.00       0    90.1
 211   22:40   74.8    34    1.7   240      3.6   829.3    0.00       0    89.9
 211   22:50   73.6    34    3.5   231      3.9   829.3    0.00       0    89.7
 211   23:00   74.7    32    1.6   173      3.4   829.4    0.00       0    89.5
 211   23:10   76.0    31    3.6   171      4.7   829.4    0.00       0    89.3
 211   23:20   76.7    30    3.1   174      4.3   829.3    0.00       0    89.2
 211   23:30   76.7    30    2.8   175      4.0   829.3    0.00       0    89.0
 211   23:40   76.8    30    3.9   192      5.0   829.2    0.00       0    88.8
 211   23:50   76.3    30    2.9   204      3.9   829.2    0.00       0    88.6
 212    0:00   75.6    30    1.9   196      3.7   829.1    0.00       0    88.5
 212    0:10   75.2    31    2.7   192      3.4   829.0    0.00       0    88.3
 212    0:20   75.0    31    4.1   185      6.1   828.9    0.00       0    88.1
 212    0:30   75.4    31    4.7   176      7.2   828.9    0.00       0    87.9
 212    0:40   74.8    31    4.6   175      6.5   828.9    0.00       0    87.7
 212    0:50   75.3    30    5.3   213      9.5   828.8    0.00       0    87.6
 212    1:00   76.5    28    7.2   229      9.7   828.8    0.00       0    87.4
 212    1:10   76.9    28    6.5   232      8.8   828.8    0.00       0    87.3
 212    1:20   75.1    30    3.9   334      6.2   828.7    0.00       0    87.2
 212    1:30   71.2    35    2.2   303      4.7   828.6    0.00       0    87.0
 212    1:40   70.1    35    2.7   232      3.7   828.5    0.00       0    86.8
 212    1:50   71.4    33    3.5   167      6.0   828.3    0.00       0    86.6
 212    2:00   73.3    31    5.7   148      8.5   828.3    0.00       0    86.5
 212    2:10   74.2    30    6.4   156      8.6   828.2    0.00       0    86.4
 212    2:20   74.1    30    2.2   137      6.0   828.1    0.00       0    86.2
 212    2:30   73.3    30    2.7   346      5.8   828.1    0.00       0    86.1
 212    2:40   72.2    32    2.5   321      5.3   828.2    0.00       0    85.9
 212    2:50   70.9    33    3.7   323      7.4   828.2    0.00       0    85.7
 212    3:00   69.9    34    1.9   247      3.6   828.3    0.00       0    85.6
 212    3:10   69.6    34    1.6   254      2.3   828.3    0.00       0    85.5
 212    3:20   70.5    33    1.2   247      2.2   828.3    0.00       0    85.4
 212    3:30   69.7    34    1.7   254      2.6   828.3    0.00       0    85.2
 212    3:40   69.8    34    1.6   160      2.6   828.3    0.00       0    85.0
 212    3:50   69.9    34    0.6   150      2.5   828.3    0.00       0    84.9
 212    4:00   69.2    34    3.5   128      5.1   828.2    0.00       0    84.8
 212    4:10   69.2    34    3.6   146      4.8   828.2    0.00       0    84.6
 212    4:20   68.9    34    3.1   151      4.8   828.2    0.00       0    84.4
 212    4:30   68.3    36    2.3   246      2.9   828.3    0.00       0    84.3
 212    4:40   69.0    35    1.2    48      2.4   828.5    0.00       0    84.1
 212    4:50   68.6    35    2.1   120      3.0   828.6    0.00       0    84.0
 212    5:00   68.3    36    1.7   148      2.7   828.7    0.00       3    83.9
 212    5:10   67.9    37    0.2   162      1.2   828.8    0.00       6    83.7
 212    5:20   67.8    38    2.1   258      3.1   828.9    0.00      16    83.6
 212    5:30   69.0    37    1.7   174      3.5   829.0    0.00      34    83.4
 212    5:40   70.0    36    1.6   209      2.9   829.1    0.00      37    83.3
 212    5:50   69.1    37    0.7   341      2.0   829.2    0.00      61    83.2
 212    6:00   69.5    37    1.5   268      2.5   829.2    0.00      67    83.1
 212    6:10   69.9    37    1.2   258      1.8   829.2    0.00      58    83.0
 212    6:20   70.2    37    0.7   138      1.8   829.3    0.00      65    82.8
 212    6:30   70.8    36    0.1    90      0.9   829.3    0.00      68    82.7
 212    6:40   71.6    35    0.2    75      1.1   829.4    0.00      76    82.6
 212    6:50   72.1    35    1.1   118      2.1   829.5    0.00      91    82.5
 212    7:00   71.6    36    1.9   137      2.6   829.5    0.00      97    82.5
 212    7:10   72.3    35    1.8   155      2.6   829.6    0.00      99    82.4
 212    7:20   73.6    34    2.6   148      3.7   829.6    0.00     176    82.4
 212    7:30   74.9    34    2.5   132      3.5   829.6    0.00     179    82.3
 212    7:40   77.2    31    2.5   122      3.2   829.7    0.00     476    82.2
 212    7:50   82.6    26    3.3   103      6.4   829.8    0.00     602    82.2
 212    8:00   83.5    25    7.9   118     12.9   829.8    0.00     561    82.3
 212    8:10   81.8    26    8.5   129     12.9   829.8    0.00     570    82.3
 212    8:20   82.5    25    7.7   132     11.2   829.7    0.00     621    82.5
 212    8:30   83.5    24    8.2   126     14.5   829.6    0.00     660    82.6
 212    8:40   83.6    24   11.2   147     18.3   829.6    0.00     689    82.8
 212    8:50   83.8    24   11.7   185     19.5   829.5    0.00     716    83.0
 212    9:00   85.2    23    8.9   164     14.7   829.4    0.00     748    83.2
 212    9:10   84.9    24   11.9   142     18.2   829.4    0.00     773    83.5
 212    9:20   85.0    24   12.4   139     19.4   829.5    0.00     802    83.8
 212    9:30   84.7    24   12.6   132     19.2   829.5    0.00     826    84.1
 212    9:40   85.6    23   12.0   166     20.9   829.5    0.00     847    84.4
 212    9:50   86.1    24   11.3   180     18.6   829.4    0.00     856    84.7
 212   10:00   86.0    24   12.4   173     19.3   829.4    0.00     867    85.1
 212   10:10   86.4    23   10.8   179     16.7   829.4    0.00     897    85.4
 212   10:20   86.8    22   11.5   179     18.9   829.3    0.00     914    85.9
 212   10:30   86.8    23   11.3   166     18.5   829.3    0.00     922    86.3
 212   10:40   87.6    22   10.6   173     17.8   829.2    0.00     941    86.7
 212   10:50   88.5    21   11.2   182     19.3   829.0    0.00     951    87.1
 212   11:00   88.9    22   10.9   156     17.7   828.9    0.00     946    87.6
 212   11:10   88.8    21   11.2   167     21.7   828.7    0.00     967    88.1
 212   11:20   89.9    21   10.2   168     17.9   828.7    0.00     967    88.6
 212   11:30   90.2    20   11.2   184     20.4   828.6    0.00     971    89.0
 212   11:40   90.5    20   10.2   188     17.5   828.5    0.00     967    89.5
 212   11:50   90.9    20   10.7   178     18.6   828.4    0.00     978    89.9
 212   12:00   91.6    19    9.7   182     17.1   828.2    0.00     977    90.3
 212   12:10   91.2    20    8.7   138     21.9   828.0    0.00     955    90.7
 212   12:20   92.0    20    7.6   197     15.6   827.8    0.00     965    91.1
 212   12:30   91.9    19    9.3   145     17.8   827.7    0.00     949    91.6
 212   12:40   91.9    19    9.4   148     15.6   827.5    0.00     927    92.0
 212   12:50   92.4    18    9.4   179     18.0   827.4    0.00     942    92.3
 212   13:00   93.1    18    8.5   168     16.5   827.3    0.00     924    92.7
 212   13:10   93.1    18   11.2   155     16.4   827.1    0.00     906    93.0
 212   13:20   93.2    17    9.6   153     19.2   827.0    0.00     901    93.3
 212   13:30   94.1    16    7.8   167     18.5   826.9    0.00     904    93.7
 212   13:40   93.8    15   11.5   156     20.6   826.6    0.00     886    93.8
 212   13:50   94.1    14   12.1   186     19.6   826.6    0.00     892    94.0
 212   14:00   94.4    14   11.2   210     18.9   826.4    0.00     871    94.0
 212   14:10   94.5    13    9.4   168     19.1   826.2    0.00     850    94.1
 212   14:20   94.7    13    7.8   186     16.7   826.1    0.00     830    94.1
 212   14:30   95.0    13    9.0   186     20.0   825.9    0.00     815    94.2
 212   14:40   94.6    14    6.4   203     16.7   825.8    0.00     701    94.2
 212   14:50   93.9    14    8.6   158     18.0   825.7    0.00     327    94.3
 212   15:00   92.5    14    9.0   169     15.8   825.7    0.00     187    94.4
 212   15:10   92.1    15   13.1   216     23.9   825.7    0.00     136    94.6
 212   15:20   90.5    16   14.7   252     23.7   826.0    0.00      83    94.7
 212   15:30   88.1    19   11.1   262     26.5   826.3    0.00      70    94.8
 212   15:40   85.6    22   13.7   261     27.9   826.6    0.00      71    94.7
 212   15:50   85.6    21    9.2   262     16.9   826.7    0.00      68    94.7
 212   16:00   86.3    19   11.5   257     29.3   826.9    0.00      51    94.6
 212   16:10   85.0    21   18.2   259     36.4   826.9    0.00      41    94.4
 212   16:20   82.8    23   13.5   264     30.1   826.9    0.00      35    94.2
 212   16:30   82.4    23   16.5   271     32.5   826.6    0.00      36    94.1
 212   16:40   82.8    22   19.8   292     37.6   826.5    0.00      48    94.0
 212   16:50   82.6    23   27.2   316     39.5   826.2    0.00      83    93.7
 212   17:00   83.2    22   14.8   316     26.1   826.6    0.00     141    93.5
 212   17:10   84.6    20   12.5   310     23.4   826.6    0.00     152    93.4
 212   17:20   83.2    24   11.2   300     16.8   826.8    0.00     150    93.1
 212   17:30   83.7    24    8.2   305     13.2   826.8    0.00     131    92.9
 212   17:40   83.8    24    6.2   307     11.0   826.9    0.00      95    92.8
 212   17:50   83.7    24    2.2   330      4.0   826.8    0.00      79    92.6
 212   18:00   83.7    23    0.8    77      2.0   826.6    0.00      60    92.4
 212   18:10   84.1    22    1.7   151      4.1   826.5    0.00      48    92.2
 212   18:20   84.5    21    1.0   185      3.2   826.5    0.00      37    91.9
 212   18:30   84.2    20    2.0   308      3.4   826.5    0.00      18    91.8
 212   18:40   83.8    21    1.1   289      2.6   826.4    0.00      11    91.7
 212   18:50   83.1    21    1.0   271      2.5   826.4    0.00       8    91.6
 212   19:00   82.4    21    0.5   284      2.3   826.4    0.00       5    91.4
 212   19:10   81.7    22    0.6    98      1.8   826.6    0.00       4    91.3
 212   19:20   81.8    21    3.0   122      7.2   826.7    0.00       0    91.0

Return to Goldfield, Nevada graphs page.


Western Regional Climate Center,wrcc@dri.edu